sensor_id;sensor_type;location;lat;lon;timestamp;temperature;humidity
8643;DHT22;4359;49.358;11.256;2023-09-07T00:01:45;11.90;99.90
8643;DHT22;4359;49.358;11.256;2023-09-07T00:04:11;11.90;99.90
8643;DHT22;4359;49.358;11.256;2023-09-07T00:06:40;11.90;99.90
8643;DHT22;4359;49.358;11.256;2023-09-07T00:09:06;11.80;99.90
8643;DHT22;4359;49.358;11.256;2023-09-07T00:11:33;11.80;99.90
8643;DHT22;4359;49.358;11.256;2023-09-07T00:13:59;11.80;99.90
8643;DHT22;4359;49.358;11.256;2023-09-07T00:16:25;11.80;99.90
8643;DHT22;4359;49.358;11.256;2023-09-07T00:18:50;11.80;99.90
8643;DHT22;4359;49.358;11.256;2023-09-07T00:21:16;11.80;99.90
8643;DHT22;4359;49.358;11.256;2023-09-07T00:23:42;11.80;99.90
8643;DHT22;4359;49.358;11.256;2023-09-07T00:26:07;11.80;99.90
8643;DHT22;4359;49.358;11.256;2023-09-07T00:28:33;11.80;99.90
8643;DHT22;4359;49.358;11.256;2023-09-07T00:30:59;11.80;99.90
8643;DHT22;4359;49.358;11.256;2023-09-07T00:33:24;11.80;99.90
8643;DHT22;4359;49.358;11.256;2023-09-07T00:35:50;11.70;99.90
8643;DHT22;4359;49.358;11.256;2023-09-07T00:38:16;11.70;99.90
8643;DHT22;4359;49.358;11.256;2023-09-07T00:40:45;11.70;99.90
8643;DHT22;4359;49.358;11.256;2023-09-07T00:43:11;11.70;99.90
8643;DHT22;4359;49.358;11.256;2023-09-07T00:45:38;11.70;99.90
8643;DHT22;4359;49.358;11.256;2023-09-07T00:48:04;11.70;99.90
8643;DHT22;4359;49.358;11.256;2023-09-07T00:50:30;11.60;99.90
8643;DHT22;4359;49.358;11.256;2023-09-07T00:52:56;11.60;99.90
8643;DHT22;4359;49.358;11.256;2023-09-07T00:55:22;11.50;99.90
8643;DHT22;4359;49.358;11.256;2023-09-07T00:57:48;11.40;99.90
8643;DHT22;4359;49.358;11.256;2023-09-07T01:00:14;11.40;99.90
8643;DHT22;4359;49.358;11.256;2023-09-07T01:02:40;11.40;99.90
8643;DHT22;4359;49.358;11.256;2023-09-07T01:05:07;11.30;99.90
8643;DHT22;4359;49.358;11.256;2023-09-07T01:07:40;11.20;99.90
8643;DHT22;4359;49.358;11.256;2023-09-07T01:10:08;11.20;99.90
8643;DHT22;4359;49.358;11.256;2023-09-07T01:12:34;11.10;99.90
8643;DHT22;4359;49.358;11.256;2023-09-07T01:14:59;11.00;99.90
8643;DHT22;4359;49.358;11.256;2023-09-07T01:17:26;11.00;99.90
8643;DHT22;4359;49.358;11.256;2023-09-07T01:19:53;10.90;99.90
8643;DHT22;4359;49.358;11.256;2023-09-07T01:22:20;10.90;99.90
8643;DHT22;4359;49.358;11.256;2023-09-07T01:24:48;10.90;99.90
8643;DHT22;4359;49.358;11.256;2023-09-07T01:27:16;10.90;99.90
8643;DHT22;4359;49.358;11.256;2023-09-07T01:29:41;10.90;99.90
8643;DHT22;4359;49.358;11.256;2023-09-07T01:32:07;10.90;99.90
8643;DHT22;4359;49.358;11.256;2023-09-07T01:34:35;11.00;99.90
8643;DHT22;4359;49.358;11.256;2023-09-07T01:37:01;11.10;99.90
8643;DHT22;4359;49.358;11.256;2023-09-07T01:39:26;11.10;99.90
8643;DHT22;4359;49.358;11.256;2023-09-07T01:41:52;11.00;99.90
8643;DHT22;4359;49.358;11.256;2023-09-07T01:44:18;10.90;99.90
8643;DHT22;4359;49.358;11.256;2023-09-07T01:46:43;10.90;99.90
8643;DHT22;4359;49.358;11.256;2023-09-07T01:49:09;10.90;99.90
8643;DHT22;4359;49.358;11.256;2023-09-07T01:51:35;10.90;99.90
8643;DHT22;4359;49.358;11.256;2023-09-07T01:54:00;10.80;99.90
8643;DHT22;4359;49.358;11.256;2023-09-07T01:56:26;10.80;99.90
8643;DHT22;4359;49.358;11.256;2023-09-07T01:58:52;10.70;99.90
8643;DHT22;4359;49.358;11.256;2023-09-07T02:03:47;10.60;99.90
8643;DHT22;4359;49.358;11.256;2023-09-07T02:06:13;10.50;99.90
8643;DHT22;4359;49.358;11.256;2023-09-07T02:08:38;10.50;99.90
8643;DHT22;4359;49.358;11.256;2023-09-07T02:11:05;10.40;99.90
8643;DHT22;4359;49.358;11.256;2023-09-07T02:13:31;10.40;99.90
8643;DHT22;4359;49.358;11.256;2023-09-07T02:15:57;10.30;99.90
8643;DHT22;4359;49.358;11.256;2023-09-07T02:18:23;10.30;99.90
8643;DHT22;4359;49.358;11.256;2023-09-07T02:20:48;10.30;99.90
8643;DHT22;4359;49.358;11.256;2023-09-07T02:23:14;10.30;99.90
8643;DHT22;4359;49.358;11.256;2023-09-07T02:25:43;10.20;99.90
8643;DHT22;4359;49.358;11.256;2023-09-07T02:28:09;10.20;99.90
8643;DHT22;4359;49.358;11.256;2023-09-07T02:30:34;10.20;99.90
8643;DHT22;4359;49.358;11.256;2023-09-07T02:33:00;10.10;99.90
8643;DHT22;4359;49.358;11.256;2023-09-07T02:35:25;10.10;99.90
8643;DHT22;4359;49.358;11.256;2023-09-07T02:37:51;10.10;99.90
8643;DHT22;4359;49.358;11.256;2023-09-07T02:40:17;10.00;99.90
8643;DHT22;4359;49.358;11.256;2023-09-07T02:42:42;10.00;99.90
8643;DHT22;4359;49.358;11.256;2023-09-07T02:45:11;10.00;99.90
8643;DHT22;4359;49.358;11.256;2023-09-07T02:47:38;10.00;99.90
8643;DHT22;4359;49.358;11.256;2023-09-07T02:50:04;10.00;99.90
8643;DHT22;4359;49.358;11.256;2023-09-07T02:52:31;10.00;99.90
8643;DHT22;4359;49.358;11.256;2023-09-07T02:54:56;9.90;99.90
8643;DHT22;4359;49.358;11.256;2023-09-07T02:57:22;9.90;99.90
8643;DHT22;4359;49.358;11.256;2023-09-07T02:59:48;9.90;99.90
8643;DHT22;4359;49.358;11.256;2023-09-07T03:02:13;9.90;99.90
8643;DHT22;4359;49.358;11.256;2023-09-07T03:04:39;10.00;99.90
8643;DHT22;4359;49.358;11.256;2023-09-07T03:07:05;9.90;99.90
8643;DHT22;4359;49.358;11.256;2023-09-07T03:09:30;9.90;99.90
8643;DHT22;4359;49.358;11.256;2023-09-07T03:11:56;9.90;99.90
8643;DHT22;4359;49.358;11.256;2023-09-07T03:14:22;9.80;99.90
8643;DHT22;4359;49.358;11.256;2023-09-07T03:16:47;9.70;99.90
8643;DHT22;4359;49.358;11.256;2023-09-07T03:19:15;9.60;99.90
8643;DHT22;4359;49.358;11.256;2023-09-07T03:21:41;9.60;99.90
8643;DHT22;4359;49.358;11.256;2023-09-07T03:24:07;9.50;99.90
8643;DHT22;4359;49.358;11.256;2023-09-07T03:26:33;9.50;99.90
8643;DHT22;4359;49.358;11.256;2023-09-07T03:29:00;9.50;99.90
8643;DHT22;4359;49.358;11.256;2023-09-07T03:31:26;9.40;99.90
8643;DHT22;4359;49.358;11.256;2023-09-07T03:33:51;9.40;99.90
8643;DHT22;4359;49.358;11.256;2023-09-07T03:36:17;9.30;99.90
8643;DHT22;4359;49.358;11.256;2023-09-07T03:38:43;9.30;99.90
8643;DHT22;4359;49.358;11.256;2023-09-07T03:41:08;9.30;99.90
8643;DHT22;4359;49.358;11.256;2023-09-07T03:43:34;9.30;99.90
8643;DHT22;4359;49.358;11.256;2023-09-07T03:46:00;9.20;99.90
8643;DHT22;4359;49.358;11.256;2023-09-07T03:48:25;9.20;99.90
8643;DHT22;4359;49.358;11.256;2023-09-07T03:50:51;9.20;99.90
8643;DHT22;4359;49.358;11.256;2023-09-07T03:53:16;9.20;99.90
8643;DHT22;4359;49.358;11.256;2023-09-07T03:55:43;9.20;99.90
8643;DHT22;4359;49.358;11.256;2023-09-07T03:58:09;9.10;99.90
8643;DHT22;4359;49.358;11.256;2023-09-07T04:00:38;9.10;99.90
8643;DHT22;4359;49.358;11.256;2023-09-07T04:03:05;9.20;99.90
8643;DHT22;4359;49.358;11.256;2023-09-07T04:05:31;9.20;99.90
8643;DHT22;4359;49.358;11.256;2023-09-07T04:07:57;9.20;99.90
8643;DHT22;4359;49.358;11.256;2023-09-07T04:10:22;9.10;99.90
8643;DHT22;4359;49.358;11.256;2023-09-07T04:12:48;9.10;99.90
8643;DHT22;4359;49.358;11.256;2023-09-07T04:15:14;9.00;99.90
8643;DHT22;4359;49.358;11.256;2023-09-07T04:17:39;9.00;99.90
8643;DHT22;4359;49.358;11.256;2023-09-07T04:20:07;9.00;99.90
8643;DHT22;4359;49.358;11.256;2023-09-07T04:22:33;9.00;99.90
8643;DHT22;4359;49.358;11.256;2023-09-07T04:24:59;9.00;99.90
8643;DHT22;4359;49.358;11.256;2023-09-07T04:27:24;9.00;99.90
8643;DHT22;4359;49.358;11.256;2023-09-07T04:29:51;9.00;99.90
8643;DHT22;4359;49.358;11.256;2023-09-07T04:32:16;9.00;99.90
8643;DHT22;4359;49.358;11.256;2023-09-07T04:34:42;8.90;99.90
8643;DHT22;4359;49.358;11.256;2023-09-07T04:37:09;8.90;99.90
8643;DHT22;4359;49.358;11.256;2023-09-07T04:39:34;8.90;99.90
8643;DHT22;4359;49.358;11.256;2023-09-07T04:42:00;8.80;99.90
8643;DHT22;4359;49.358;11.256;2023-09-07T04:44:27;8.90;99.90
8643;DHT22;4359;49.358;11.256;2023-09-07T04:46:55;8.80;99.90
8643;DHT22;4359;49.358;11.256;2023-09-07T04:49:21;8.90;99.90
8643;DHT22;4359;49.358;11.256;2023-09-07T04:51:46;8.90;99.90
8643;DHT22;4359;49.358;11.256;2023-09-07T04:54:12;8.80;99.90
8643;DHT22;4359;49.358;11.256;2023-09-07T04:56:38;8.90;99.90
8643;DHT22;4359;49.358;11.256;2023-09-07T04:59:04;8.90;99.90
8643;DHT22;4359;49.358;11.256;2023-09-07T05:01:29;8.90;99.90
8643;DHT22;4359;49.358;11.256;2023-09-07T05:03:57;8.90;99.90
8643;DHT22;4359;49.358;11.256;2023-09-07T05:06:22;8.90;99.90
8643;DHT22;4359;49.358;11.256;2023-09-07T05:08:48;8.80;99.90
8643;DHT22;4359;49.358;11.256;2023-09-07T05:11:14;8.80;99.90
8643;DHT22;4359;49.358;11.256;2023-09-07T05:13:39;8.90;99.90
8643;DHT22;4359;49.358;11.256;2023-09-07T05:16:05;9.00;99.90
8643;DHT22;4359;49.358;11.256;2023-09-07T05:18:31;9.00;99.90
8643;DHT22;4359;49.358;11.256;2023-09-07T05:20:56;9.10;99.90
8643;DHT22;4359;49.358;11.256;2023-09-07T05:23:23;9.20;99.90
8643;DHT22;4359;49.358;11.256;2023-09-07T05:25:51;9.30;99.90
8643;DHT22;4359;49.358;11.256;2023-09-07T05:28:18;9.40;99.90
8643;DHT22;4359;49.358;11.256;2023-09-07T05:30:44;9.40;99.90
8643;DHT22;4359;49.358;11.256;2023-09-07T05:33:11;9.50;99.90
8643;DHT22;4359;49.358;11.256;2023-09-07T05:35:37;9.60;99.90
8643;DHT22;4359;49.358;11.256;2023-09-07T05:38:04;9.70;99.90
8643;DHT22;4359;49.358;11.256;2023-09-07T05:40:34;9.80;99.90
8643;DHT22;4359;49.358;11.256;2023-09-07T05:43:00;9.90;99.90
8643;DHT22;4359;49.358;11.256;2023-09-07T05:45:25;10.00;99.90
8643;DHT22;4359;49.358;11.256;2023-09-07T05:47:51;10.10;99.90
8643;DHT22;4359;49.358;11.256;2023-09-07T05:50:16;10.30;99.90
8643;DHT22;4359;49.358;11.256;2023-09-07T05:52:42;10.50;99.90
8643;DHT22;4359;49.358;11.256;2023-09-07T05:55:08;10.60;99.90
8643;DHT22;4359;49.358;11.256;2023-09-07T05:57:33;10.70;99.90
8643;DHT22;4359;49.358;11.256;2023-09-07T05:59:59;10.80;99.90
8643;DHT22;4359;49.358;11.256;2023-09-07T06:02:25;11.00;99.90
8643;DHT22;4359;49.358;11.256;2023-09-07T06:04:50;11.30;99.90
8643;DHT22;4359;49.358;11.256;2023-09-07T06:07:16;11.40;99.90
8643;DHT22;4359;49.358;11.256;2023-09-07T06:09:41;11.60;99.90
8643;DHT22;4359;49.358;11.256;2023-09-07T06:12:07;11.90;99.90
8643;DHT22;4359;49.358;11.256;2023-09-07T06:14:33;12.20;99.90
8643;DHT22;4359;49.358;11.256;2023-09-07T06:16:58;12.40;99.90
8643;DHT22;4359;49.358;11.256;2023-09-07T06:19:24;12.70;99.90
8643;DHT22;4359;49.358;11.256;2023-09-07T06:21:49;13.00;99.90
8643;DHT22;4359;49.358;11.256;2023-09-07T06:24:15;13.10;99.90
8643;DHT22;4359;49.358;11.256;2023-09-07T06:26:41;13.30;99.90
8643;DHT22;4359;49.358;11.256;2023-09-07T06:29:08;13.50;99.90
8643;DHT22;4359;49.358;11.256;2023-09-07T06:31:33;13.80;99.90
8643;DHT22;4359;49.358;11.256;2023-09-07T06:33:59;14.00;99.90
8643;DHT22;4359;49.358;11.256;2023-09-07T06:36:24;14.20;99.90
8643;DHT22;4359;49.358;11.256;2023-09-07T06:38:50;14.50;99.90
8643;DHT22;4359;49.358;11.256;2023-09-07T06:41:16;14.70;99.90
8643;DHT22;4359;49.358;11.256;2023-09-07T06:43:41;15.00;99.90
8643;DHT22;4359;49.358;11.256;2023-09-07T06:46:08;15.30;99.90
8643;DHT22;4359;49.358;11.256;2023-09-07T06:48:35;15.70;99.90
8643;DHT22;4359;49.358;11.256;2023-09-07T06:51:04;16.30;99.90
8643;DHT22;4359;49.358;11.256;2023-09-07T06:53:30;16.90;99.90
8643;DHT22;4359;49.358;11.256;2023-09-07T06:56:03;17.40;99.90
8643;DHT22;4359;49.358;11.256;2023-09-07T06:58:29;17.90;99.90
8643;DHT22;4359;49.358;11.256;2023-09-07T07:00:58;18.40;99.90
8643;DHT22;4359;49.358;11.256;2023-09-07T07:03:30;18.70;99.90
8643;DHT22;4359;49.358;11.256;2023-09-07T07:05:56;19.10;99.90
8643;DHT22;4359;49.358;11.256;2023-09-07T07:08:22;19.40;99.90
8643;DHT22;4359;49.358;11.256;2023-09-07T07:10:48;19.80;99.90
8643;DHT22;4359;49.358;11.256;2023-09-07T07:13:14;20.20;99.90
8643;DHT22;4359;49.358;11.256;2023-09-07T07:15:40;20.60;99.90
8643;DHT22;4359;49.358;11.256;2023-09-07T07:18:05;21.00;99.90
8643;DHT22;4359;49.358;11.256;2023-09-07T07:20:42;21.40;99.90
8643;DHT22;4359;49.358;11.256;2023-09-07T07:23:09;21.70;99.90
8643;DHT22;4359;49.358;11.256;2023-09-07T07:25:35;22.00;99.90
8643;DHT22;4359;49.358;11.256;2023-09-07T07:28:03;22.40;99.90
8643;DHT22;4359;49.358;11.256;2023-09-07T07:30:34;22.10;99.90
8643;DHT22;4359;49.358;11.256;2023-09-07T07:33:00;22.30;99.90
8643;DHT22;4359;49.358;11.256;2023-09-07T07:35:26;22.50;99.90
8643;DHT22;4359;49.358;11.256;2023-09-07T07:37:52;22.80;99.90
8643;DHT22;4359;49.358;11.256;2023-09-07T07:40:18;23.20;99.90
8643;DHT22;4359;49.358;11.256;2023-09-07T07:42:45;23.60;99.90
8643;DHT22;4359;49.358;11.256;2023-09-07T07:45:12;23.60;99.90
8643;DHT22;4359;49.358;11.256;2023-09-07T07:47:39;24.00;99.90
8643;DHT22;4359;49.358;11.256;2023-09-07T07:50:05;24.20;99.90
8643;DHT22;4359;49.358;11.256;2023-09-07T07:52:31;24.10;99.90
8643;DHT22;4359;49.358;11.256;2023-09-07T07:54:57;24.30;99.90
8643;DHT22;4359;49.358;11.256;2023-09-07T07:57:23;24.20;99.90
8643;DHT22;4359;49.358;11.256;2023-09-07T07:59:48;24.40;99.90
8643;DHT22;4359;49.358;11.256;2023-09-07T08:02:14;24.50;99.90
8643;DHT22;4359;49.358;11.256;2023-09-07T08:04:39;24.50;99.90
8643;DHT22;4359;49.358;11.256;2023-09-07T08:07:05;24.50;99.90
8643;DHT22;4359;49.358;11.256;2023-09-07T08:09:32;24.40;99.90
8643;DHT22;4359;49.358;11.256;2023-09-07T08:11:58;24.70;99.90
8643;DHT22;4359;49.358;11.256;2023-09-07T08:14:28;24.70;99.90
8643;DHT22;4359;49.358;11.256;2023-09-07T08:16:54;24.50;99.90
8643;DHT22;4359;49.358;11.256;2023-09-07T08:19:20;24.60;99.90
8643;DHT22;4359;49.358;11.256;2023-09-07T08:21:46;24.70;99.90
8643;DHT22;4359;49.358;11.256;2023-09-07T08:24:12;24.50;99.90
8643;DHT22;4359;49.358;11.256;2023-09-07T08:26:38;24.40;99.90
8643;DHT22;4359;49.358;11.256;2023-09-07T08:29:04;24.60;99.90
8643;DHT22;4359;49.358;11.256;2023-09-07T08:31:37;24.70;99.90
8643;DHT22;4359;49.358;11.256;2023-09-07T08:34:06;24.80;99.90
8643;DHT22;4359;49.358;11.256;2023-09-07T08:36:32;24.90;99.90
8643;DHT22;4359;49.358;11.256;2023-09-07T08:39:02;25.10;99.90
8643;DHT22;4359;49.358;11.256;2023-09-07T08:41:51;25.10;99.90
8643;DHT22;4359;49.358;11.256;2023-09-07T08:44:17;25.10;99.90
8643;DHT22;4359;49.358;11.256;2023-09-07T08:46:45;24.90;99.90
8643;DHT22;4359;49.358;11.256;2023-09-07T08:49:11;24.80;99.90
8643;DHT22;4359;49.358;11.256;2023-09-07T08:51:38;24.90;99.90
8643;DHT22;4359;49.358;11.256;2023-09-07T08:54:04;25.10;99.90
8643;DHT22;4359;49.358;11.256;2023-09-07T08:56:30;25.40;99.90
8643;DHT22;4359;49.358;11.256;2023-09-07T08:58:56;25.50;99.90
8643;DHT22;4359;49.358;11.256;2023-09-07T09:01:22;25.60;99.90
8643;DHT22;4359;49.358;11.256;2023-09-07T09:03:51;25.60;99.90
8643;DHT22;4359;49.358;11.256;2023-09-07T09:06:18;25.60;99.90
8643;DHT22;4359;49.358;11.256;2023-09-07T09:08:54;25.70;99.90
8643;DHT22;4359;49.358;11.256;2023-09-07T09:11:21;25.60;99.90
8643;DHT22;4359;49.358;11.256;2023-09-07T09:13:48;25.70;99.90
8643;DHT22;4359;49.358;11.256;2023-09-07T09:16:15;25.60;99.90
8643;DHT22;4359;49.358;11.256;2023-09-07T09:18:50;25.60;99.90
8643;DHT22;4359;49.358;11.256;2023-09-07T09:21:21;25.70;99.90
8643;DHT22;4359;49.358;11.256;2023-09-07T09:23:48;25.90;99.90
8643;DHT22;4359;49.358;11.256;2023-09-07T09:26:17;26.30;99.90
8643;DHT22;4359;49.358;11.256;2023-09-07T09:28:43;26.90;99.90
8643;DHT22;4359;49.358;11.256;2023-09-07T09:31:12;26.90;99.90
8643;DHT22;4359;49.358;11.256;2023-09-07T09:33:39;27.20;99.90
8643;DHT22;4359;49.358;11.256;2023-09-07T09:36:06;27.30;99.90
8643;DHT22;4359;49.358;11.256;2023-09-07T09:38:32;27.50;99.90
8643;DHT22;4359;49.358;11.256;2023-09-07T09:40:59;27.80;99.90
8643;DHT22;4359;49.358;11.256;2023-09-07T09:43:25;28.10;99.90
8643;DHT22;4359;49.358;11.256;2023-09-07T09:45:52;28.10;99.90
8643;DHT22;4359;49.358;11.256;2023-09-07T09:48:22;27.90;99.90
8643;DHT22;4359;49.358;11.256;2023-09-07T09:50:49;28.10;99.90
8643;DHT22;4359;49.358;11.256;2023-09-07T09:53:19;28.30;99.90
8643;DHT22;4359;49.358;11.256;2023-09-07T09:55:49;28.20;99.90
8643;DHT22;4359;49.358;11.256;2023-09-07T09:58:16;27.90;99.90
8643;DHT22;4359;49.358;11.256;2023-09-07T10:00:56;27.90;99.90
8643;DHT22;4359;49.358;11.256;2023-09-07T10:03:32;27.90;99.90
8643;DHT22;4359;49.358;11.256;2023-09-07T10:06:08;27.70;99.90
8643;DHT22;4359;49.358;11.256;2023-09-07T10:08:34;27.50;99.90
8643;DHT22;4359;49.358;11.256;2023-09-07T10:10:59;27.70;99.90
8643;DHT22;4359;49.358;11.256;2023-09-07T10:13:30;27.90;99.90
8643;DHT22;4359;49.358;11.256;2023-09-07T10:16:06;28.00;99.90
8643;DHT22;4359;49.358;11.256;2023-09-07T10:18:36;27.90;99.90
8643;DHT22;4359;49.358;11.256;2023-09-07T10:21:02;28.00;99.90
8643;DHT22;4359;49.358;11.256;2023-09-07T10:23:42;28.50;99.90
8643;DHT22;4359;49.358;11.256;2023-09-07T10:26:18;28.80;99.90
8643;DHT22;4359;49.358;11.256;2023-09-07T10:28:46;28.70;99.90
8643;DHT22;4359;49.358;11.256;2023-09-07T10:31:16;28.50;99.90
8643;DHT22;4359;49.358;11.256;2023-09-07T10:33:42;28.50;99.90
8643;DHT22;4359;49.358;11.256;2023-09-07T10:36:08;28.50;99.90
8643;DHT22;4359;49.358;11.256;2023-09-07T10:38:46;28.50;99.90
8643;DHT22;4359;49.358;11.256;2023-09-07T10:41:12;28.40;99.90
8643;DHT22;4359;49.358;11.256;2023-09-07T10:43:50;28.70;99.90
8643;DHT22;4359;49.358;11.256;2023-09-07T10:46:19;29.00;99.90
8643;DHT22;4359;49.358;11.256;2023-09-07T10:48:46;29.00;99.90
8643;DHT22;4359;49.358;11.256;2023-09-07T10:51:13;28.90;99.90
8643;DHT22;4359;49.358;11.256;2023-09-07T10:53:40;28.90;99.90
8643;DHT22;4359;49.358;11.256;2023-09-07T10:56:06;28.80;99.90
8643;DHT22;4359;49.358;11.256;2023-09-07T10:58:34;28.70;99.90
8643;DHT22;4359;49.358;11.256;2023-09-07T11:01:00;28.90;99.90
8643;DHT22;4359;49.358;11.256;2023-09-07T11:03:27;28.70;99.90
8643;DHT22;4359;49.358;11.256;2023-09-07T11:05:55;28.90;99.90
8643;DHT22;4359;49.358;11.256;2023-09-07T11:08:23;29.40;99.90
8643;DHT22;4359;49.358;11.256;2023-09-07T11:10:50;29.70;99.90
8643;DHT22;4359;49.358;11.256;2023-09-07T11:13:17;29.90;98.70
8643;DHT22;4359;49.358;11.256;2023-09-07T11:15:43;29.70;99.80
8643;DHT22;4359;49.358;11.256;2023-09-07T11:18:09;29.40;98.00
8643;DHT22;4359;49.358;11.256;2023-09-07T11:20:36;29.10;99.90
8643;DHT22;4359;49.358;11.256;2023-09-07T11:23:02;29.20;99.00
8643;DHT22;4359;49.358;11.256;2023-09-07T11:25:35;29.40;99.90
8643;DHT22;4359;49.358;11.256;2023-09-07T11:28:02;29.40;99.80
8643;DHT22;4359;49.358;11.256;2023-09-07T11:30:28;29.70;99.90
8643;DHT22;4359;49.358;11.256;2023-09-07T11:33:21;30.10;99.00
8643;DHT22;4359;49.358;11.256;2023-09-07T11:35:48;30.30;97.60
8643;DHT22;4359;49.358;11.256;2023-09-07T11:38:16;30.10;97.80
8643;DHT22;4359;49.358;11.256;2023-09-07T11:40:42;30.00;98.40
8643;DHT22;4359;49.358;11.256;2023-09-07T11:43:11;30.00;97.20
8643;DHT22;4359;49.358;11.256;2023-09-07T11:45:38;29.90;97.30
8643;DHT22;4359;49.358;11.256;2023-09-07T11:48:04;30.00;97.80
8643;DHT22;4359;49.358;11.256;2023-09-07T11:50:30;30.00;99.10
8643;DHT22;4359;49.358;11.256;2023-09-07T11:52:56;29.80;99.50
8643;DHT22;4359;49.358;11.256;2023-09-07T11:55:22;29.80;99.40
8643;DHT22;4359;49.358;11.256;2023-09-07T11:57:47;30.00;98.70
8643;DHT22;4359;49.358;11.256;2023-09-07T12:00:14;30.10;97.30
8643;DHT22;4359;49.358;11.256;2023-09-07T12:02:40;30.20;99.90
8643;DHT22;4359;49.358;11.256;2023-09-07T12:05:06;30.50;97.70
8643;DHT22;4359;49.358;11.256;2023-09-07T12:07:40;30.50;96.80
8643;DHT22;4359;49.358;11.256;2023-09-07T12:10:06;30.40;97.60
8643;DHT22;4359;49.358;11.256;2023-09-07T12:12:36;30.10;96.60
8643;DHT22;4359;49.358;11.256;2023-09-07T12:15:02;30.10;96.00
8643;DHT22;4359;49.358;11.256;2023-09-07T12:17:30;30.40;98.60
8643;DHT22;4359;49.358;11.256;2023-09-07T12:19:56;30.60;98.20
8643;DHT22;4359;49.358;11.256;2023-09-07T12:22:21;30.90;96.80
8643;DHT22;4359;49.358;11.256;2023-09-07T12:24:47;31.00;97.30
8643;DHT22;4359;49.358;11.256;2023-09-07T12:27:13;31.00;95.90
8643;DHT22;4359;49.358;11.256;2023-09-07T12:29:38;31.00;95.50
8643;DHT22;4359;49.358;11.256;2023-09-07T12:32:04;31.00;94.10
8643;DHT22;4359;49.358;11.256;2023-09-07T12:34:30;30.80;96.90
8643;DHT22;4359;49.358;11.256;2023-09-07T12:36:56;30.90;94.70
8643;DHT22;4359;49.358;11.256;2023-09-07T12:39:21;30.70;95.60
8643;DHT22;4359;49.358;11.256;2023-09-07T12:41:47;30.60;94.90
8643;DHT22;4359;49.358;11.256;2023-09-07T12:44:13;30.60;93.80
8643;DHT22;4359;49.358;11.256;2023-09-07T12:46:38;30.40;95.50
8643;DHT22;4359;49.358;11.256;2023-09-07T12:49:04;30.70;95.60
8643;DHT22;4359;49.358;11.256;2023-09-07T12:51:30;31.00;96.50
8643;DHT22;4359;49.358;11.256;2023-09-07T12:53:56;31.30;94.70
8643;DHT22;4359;49.358;11.256;2023-09-07T12:56:22;31.70;95.90
8643;DHT22;4359;49.358;11.256;2023-09-07T12:58:48;31.90;95.60
8643;DHT22;4359;49.358;11.256;2023-09-07T13:01:14;31.60;94.40
8643;DHT22;4359;49.358;11.256;2023-09-07T13:03:41;31.30;94.80
8643;DHT22;4359;49.358;11.256;2023-09-07T13:06:06;31.10;96.80
8643;DHT22;4359;49.358;11.256;2023-09-07T13:08:32;31.40;95.60
8643;DHT22;4359;49.358;11.256;2023-09-07T13:10:58;31.60;95.80
8643;DHT22;4359;49.358;11.256;2023-09-07T13:13:24;31.50;95.90
8643;DHT22;4359;49.358;11.256;2023-09-07T13:15:55;31.80;95.60
8643;DHT22;4359;49.358;11.256;2023-09-07T13:18:21;32.10;95.30
8643;DHT22;4359;49.358;11.256;2023-09-07T13:20:47;32.00;94.70
8643;DHT22;4359;49.358;11.256;2023-09-07T13:23:15;31.90;94.90
8643;DHT22;4359;49.358;11.256;2023-09-07T13:25:41;31.80;95.80
8643;DHT22;4359;49.358;11.256;2023-09-07T13:28:07;31.50;96.50
8643;DHT22;4359;49.358;11.256;2023-09-07T13:30:32;31.50;95.60
8643;DHT22;4359;49.358;11.256;2023-09-07T13:32:58;31.50;95.00
8643;DHT22;4359;49.358;11.256;2023-09-07T13:35:25;31.40;95.70
8643;DHT22;4359;49.358;11.256;2023-09-07T13:37:51;31.40;95.30
8643;DHT22;4359;49.358;11.256;2023-09-07T13:40:17;31.20;94.30
8643;DHT22;4359;49.358;11.256;2023-09-07T13:42:45;31.30;94.60
8643;DHT22;4359;49.358;11.256;2023-09-07T13:45:10;31.30;94.70
8643;DHT22;4359;49.358;11.256;2023-09-07T13:47:36;31.40;93.90
8643;DHT22;4359;49.358;11.256;2023-09-07T13:50:03;31.70;93.80
8643;DHT22;4359;49.358;11.256;2023-09-07T13:52:29;31.80;94.60
8643;DHT22;4359;49.358;11.256;2023-09-07T13:54:56;31.70;91.80
8643;DHT22;4359;49.358;11.256;2023-09-07T13:57:21;31.30;92.50
8643;DHT22;4359;49.358;11.256;2023-09-07T13:59:47;31.30;92.10
8643;DHT22;4359;49.358;11.256;2023-09-07T14:02:13;31.50;93.00
8643;DHT22;4359;49.358;11.256;2023-09-07T14:04:38;31.70;92.10
8643;DHT22;4359;49.358;11.256;2023-09-07T14:07:04;32.00;91.80
8643;DHT22;4359;49.358;11.256;2023-09-07T14:09:29;32.20;92.60
8643;DHT22;4359;49.358;11.256;2023-09-07T14:11:55;32.20;91.40
8643;DHT22;4359;49.358;11.256;2023-09-07T14:14:21;31.90;91.40
8643;DHT22;4359;49.358;11.256;2023-09-07T14:16:47;31.90;94.00
8643;DHT22;4359;49.358;11.256;2023-09-07T14:19:12;31.90;93.20
8643;DHT22;4359;49.358;11.256;2023-09-07T14:21:38;32.40;92.80
8643;DHT22;4359;49.358;11.256;2023-09-07T14:24:04;32.40;91.50
8643;DHT22;4359;49.358;11.256;2023-09-07T14:26:30;32.10;91.00
8643;DHT22;4359;49.358;11.256;2023-09-07T14:28:55;31.90;91.30
8643;DHT22;4359;49.358;11.256;2023-09-07T14:31:21;32.00;91.50
8643;DHT22;4359;49.358;11.256;2023-09-07T14:33:46;32.00;91.70
8643;DHT22;4359;49.358;11.256;2023-09-07T14:36:12;31.90;92.40
8643;DHT22;4359;49.358;11.256;2023-09-07T14:38:38;31.80;91.80
8643;DHT22;4359;49.358;11.256;2023-09-07T14:41:09;31.00;92.40
8643;DHT22;4359;49.358;11.256;2023-09-07T14:43:47;30.40;93.40
8643;DHT22;4359;49.358;11.256;2023-09-07T14:46:13;30.00;93.30
8643;DHT22;4359;49.358;11.256;2023-09-07T14:48:39;29.60;93.20
8643;DHT22;4359;49.358;11.256;2023-09-07T14:51:05;29.30;93.90
8643;DHT22;4359;49.358;11.256;2023-09-07T14:53:30;29.00;94.60
8643;DHT22;4359;49.358;11.256;2023-09-07T14:55:56;28.80;95.10
8643;DHT22;4359;49.358;11.256;2023-09-07T14:58:22;28.70;95.10
8643;DHT22;4359;49.358;11.256;2023-09-07T15:00:48;28.60;95.10
8643;DHT22;4359;49.358;11.256;2023-09-07T15:03:13;28.40;94.60
8643;DHT22;4359;49.358;11.256;2023-09-07T15:05:39;28.40;94.80
8643;DHT22;4359;49.358;11.256;2023-09-07T15:08:04;28.40;94.30
8643;DHT22;4359;49.358;11.256;2023-09-07T15:10:32;28.40;95.10
8643;DHT22;4359;49.358;11.256;2023-09-07T15:13:00;28.30;94.60
8643;DHT22;4359;49.358;11.256;2023-09-07T15:15:31;28.10;95.80
8643;DHT22;4359;49.358;11.256;2023-09-07T15:18:03;27.90;96.10
8643;DHT22;4359;49.358;11.256;2023-09-07T15:20:29;27.90;95.90
8643;DHT22;4359;49.358;11.256;2023-09-07T15:22:55;27.90;95.90
8643;DHT22;4359;49.358;11.256;2023-09-07T15:25:20;27.90;96.20
8643;DHT22;4359;49.358;11.256;2023-09-07T15:27:46;28.00;95.70
8643;DHT22;4359;49.358;11.256;2023-09-07T15:30:15;28.00;95.90
8643;DHT22;4359;49.358;11.256;2023-09-07T15:32:41;28.00;96.40
8643;DHT22;4359;49.358;11.256;2023-09-07T15:35:10;28.00;96.50
8643;DHT22;4359;49.358;11.256;2023-09-07T15:37:35;27.90;97.70
8643;DHT22;4359;49.358;11.256;2023-09-07T15:40:01;27.80;96.90
8643;DHT22;4359;49.358;11.256;2023-09-07T15:42:28;27.80;97.20
8643;DHT22;4359;49.358;11.256;2023-09-07T15:44:53;27.60;97.10
8643;DHT22;4359;49.358;11.256;2023-09-07T15:47:19;27.50;98.20
8643;DHT22;4359;49.358;11.256;2023-09-07T15:49:45;27.50;97.10